createdAt,value
2019-01-27T00:01:36.462Z,3.83
2019-01-27T00:04:03.839Z,1.60
2019-01-27T00:06:30.436Z,1.70
2019-01-27T00:08:57.043Z,2.13
2019-01-27T00:11:23.810Z,2.57
2019-01-27T00:13:50.981Z,1.97
2019-01-27T00:16:17.570Z,1.77
2019-01-27T00:18:44.204Z,1.50
2019-01-27T00:21:10.821Z,1.80
2019-01-27T00:23:37.465Z,1.60
2019-01-27T00:26:04.200Z,2.07
2019-01-27T00:28:30.866Z,3.73
2019-01-27T00:30:57.587Z,1.50
2019-01-27T00:33:24.343Z,1.77
2019-01-27T00:35:50.876Z,1.63
2019-01-27T00:38:17.529Z,1.60
2019-01-27T00:43:38.535Z,1.40
2019-01-27T00:46:05.659Z,1.70
2019-01-27T00:48:32.171Z,1.93
2019-01-27T00:50:58.947Z,2.63
2019-01-27T00:53:25.577Z,1.50
2019-01-27T00:55:52.102Z,1.40
2019-01-27T00:58:18.651Z,1.93
2019-01-27T01:00:45.190Z,3.00
2019-01-27T01:03:11.728Z,1.40
2019-01-27T01:05:38.360Z,1.40
2019-01-27T01:08:05.820Z,1.73
2019-01-27T01:10:32.472Z,1.20
2019-01-27T01:12:58.999Z,2.17
2019-01-27T01:15:25.643Z,1.63
2019-01-27T01:17:52.127Z,1.27
2019-01-27T01:20:21.130Z,1.00
2019-01-27T01:22:49.821Z,1.30
2019-01-27T01:25:22.146Z,3.47
2019-01-27T01:27:49.882Z,1.40
2019-01-27T01:30:20.666Z,1.60
2019-01-27T01:32:47.346Z,1.40
2019-01-27T01:35:14.150Z,1.20
2019-01-27T01:37:40.956Z,1.37
2019-01-27T01:40:12.767Z,1.10
2019-01-27T01:42:39.367Z,1.73
2019-01-27T01:45:25.671Z,2.87
2019-01-27T01:47:52.422Z,1.27
2019-01-27T01:50:18.919Z,1.27
2019-01-27T01:52:45.621Z,3.27
2019-01-27T01:55:14.512Z,2.07
2019-01-27T01:57:41.346Z,1.20
2019-01-27T02:00:17.627Z,1.33
2019-01-27T02:02:44.280Z,1.20
2019-01-27T02:05:13.691Z,1.40
2019-01-27T02:07:40.186Z,1.40
2019-01-27T02:10:11.176Z,1.17
2019-01-27T02:12:37.805Z,1.30
2019-01-27T02:15:27.589Z,2.13
2019-01-27T02:17:53.987Z,2.17
2019-01-27T02:20:20.282Z,3.83
2019-01-27T02:22:46.826Z,1.20
2019-01-27T02:25:13.305Z,1.60
2019-01-27T02:27:39.720Z,1.13
2019-01-27T02:30:10.471Z,1.37
2019-01-27T02:32:37.177Z,1.27
2019-01-27T02:35:05.590Z,1.40
2019-01-27T02:37:31.991Z,4.40
2019-01-27T02:39:58.543Z,1.10
2019-01-27T02:42:24.955Z,0.90
2019-01-27T02:44:51.588Z,0.90
2019-01-27T02:47:18.068Z,1.00
2019-01-27T02:49:44.497Z,1.53
2019-01-27T02:52:11.015Z,0.93
2019-01-27T02:54:37.442Z,0.90
2019-01-27T02:57:04.009Z,0.97
2019-01-27T02:59:30.530Z,0.80
2019-01-27T03:01:57.067Z,1.23
2019-01-27T03:04:23.484Z,3.60
2019-01-27T03:06:51.997Z,0.87
2019-01-27T03:09:19.331Z,0.73
2019-01-27T03:11:48.441Z,1.00
2019-01-27T03:14:15.772Z,0.87
2019-01-27T03:16:42.381Z,0.90
2019-01-27T03:19:08.825Z,1.00
2019-01-27T03:21:35.420Z,1.10
2019-01-27T03:24:02.053Z,1.00
2019-01-27T03:26:28.706Z,1.10
2019-01-27T03:28:55.097Z,1.10
2019-01-27T03:31:21.513Z,1.00
2019-01-27T03:33:47.992Z,1.07
2019-01-27T03:36:14.314Z,0.90
2019-01-27T03:38:40.922Z,1.30
2019-01-27T03:41:07.667Z,1.80
2019-01-27T03:43:34.275Z,1.60
2019-01-27T03:46:00.971Z,1.30
2019-01-27T03:48:27.461Z,2.20
2019-01-27T03:50:54.088Z,2.03
2019-01-27T03:53:20.678Z,2.57
2019-01-27T03:55:47.177Z,2.63
2019-01-27T03:58:13.688Z,1.10
2019-01-27T04:00:40.313Z,1.10
2019-01-27T04:03:06.595Z,1.63
2019-01-27T04:05:33.199Z,0.97
2019-01-27T04:07:59.603Z,0.90
2019-01-27T04:10:27.910Z,2.57
2019-01-27T04:12:54.730Z,2.03
2019-01-27T04:15:21.677Z,0.77
2019-01-27T04:17:48.305Z,1.43
2019-01-27T04:20:20.557Z,3.67
2019-01-27T04:22:47.261Z,0.80
2019-01-27T04:25:14.351Z,3.80
2019-01-27T04:27:40.850Z,0.90
2019-01-27T04:30:22.372Z,0.80
2019-01-27T04:32:49.123Z,0.70
2019-01-27T04:35:15.716Z,2.40
2019-01-27T04:37:42.104Z,0.70
2019-01-27T04:40:19.206Z,0.90
2019-01-27T04:42:45.806Z,1.17
2019-01-27T04:45:15.926Z,1.53
2019-01-27T04:47:42.231Z,1.00
2019-01-27T04:50:12.454Z,1.00
2019-01-27T04:52:39.321Z,0.80
2019-01-27T04:55:10.716Z,1.03
2019-01-27T04:57:37.306Z,0.93
2019-01-27T05:00:09.326Z,0.80
2019-01-27T05:02:37.627Z,1.77
2019-01-27T05:05:09.433Z,2.33
2019-01-27T05:07:35.712Z,1.07
2019-01-27T05:10:07.318Z,2.07
2019-01-27T05:12:33.953Z,0.77
2019-01-27T05:15:00.495Z,1.17
2019-01-27T05:17:26.855Z,2.03
2019-01-27T05:19:53.173Z,1.03
2019-01-27T05:22:19.572Z,0.70
2019-01-27T05:24:46.189Z,0.60
2019-01-27T05:27:12.710Z,1.30
2019-01-27T05:29:39.204Z,0.47
2019-01-27T05:32:05.737Z,2.43
2019-01-27T05:34:32.146Z,0.60
2019-01-27T05:36:58.683Z,0.67
2019-01-27T05:39:25.263Z,1.77
2019-01-27T05:41:51.847Z,2.10
2019-01-27T05:44:18.228Z,0.73
2019-01-27T05:46:44.873Z,1.13
2019-01-27T05:49:11.378Z,1.83
2019-01-27T05:51:37.793Z,1.70
2019-01-27T05:54:04.497Z,0.60
2019-01-27T05:56:31.122Z,1.33
2019-01-27T05:58:57.491Z,3.00
2019-01-27T06:01:23.999Z,1.47
2019-01-27T06:03:50.625Z,1.40
2019-01-27T06:06:17.146Z,1.93
2019-01-27T06:08:43.511Z,1.70
2019-01-27T06:11:10.018Z,0.60
2019-01-27T06:13:36.601Z,0.77
2019-01-27T06:16:03.493Z,1.00
2019-01-27T06:18:29.872Z,1.43
2019-01-27T06:20:56.373Z,0.77
2019-01-27T06:23:22.812Z,0.80
2019-01-27T06:25:49.389Z,0.70
2019-01-27T06:28:16.009Z,0.87
2019-01-27T06:30:42.394Z,0.70
2019-01-27T06:33:10.733Z,0.60
2019-01-27T06:35:38.029Z,0.60
2019-01-27T06:38:04.781Z,1.70
2019-01-27T06:40:31.285Z,0.63
2019-01-27T06:42:57.797Z,0.60
2019-01-27T06:45:24.413Z,0.57
2019-01-27T06:47:50.896Z,0.60
2019-01-27T06:50:17.739Z,0.63
2019-01-27T06:52:44.347Z,0.40
2019-01-27T06:55:15.414Z,1.00
2019-01-27T06:57:41.907Z,0.50
2019-01-27T07:00:32.545Z,0.50
2019-01-27T07:03:00.974Z,0.57
2019-01-27T07:05:38.582Z,0.60
2019-01-27T07:08:09.628Z,1.07
2019-01-27T07:10:54.517Z,0.77
2019-01-27T07:13:22.904Z,3.20
2019-01-27T07:15:51.247Z,0.90
2019-01-27T07:18:25.731Z,1.37
2019-01-27T07:20:54.170Z,1.73
2019-01-27T07:23:22.558Z,0.67
2019-01-27T07:25:59.885Z,2.40
2019-01-27T07:28:45.076Z,1.67
2019-01-27T07:31:31.799Z,2.07
2019-01-27T07:34:06.393Z,0.93
2019-01-27T07:36:34.840Z,2.43
2019-01-27T07:39:03.223Z,2.73
2019-01-27T07:41:37.830Z,1.40
2019-01-27T07:44:22.943Z,1.63
2019-01-27T07:46:51.286Z,4.13
2019-01-27T07:49:22.779Z,1.43
2019-01-27T07:51:51.233Z,2.53
2019-01-27T07:54:22.285Z,1.90
2019-01-27T07:56:59.475Z,3.23
2019-01-27T07:59:27.764Z,1.03
2019-01-27T08:01:56.102Z,1.50
2019-01-27T08:04:24.309Z,1.20
2019-01-27T08:06:52.764Z,0.83
2019-01-27T08:09:24.042Z,1.67
2019-01-27T08:11:52.490Z,1.30
2019-01-27T08:14:24.173Z,1.37
2019-01-27T08:16:52.705Z,1.30
2019-01-27T08:19:21.153Z,1.73
2019-01-27T08:21:50.226Z,1.30
2019-01-27T08:24:27.358Z,2.93
2019-01-27T08:27:07.892Z,1.73
2019-01-27T08:29:54.561Z,1.97
2019-01-27T08:32:38.234Z,2.47
2019-01-27T08:35:12.125Z,4.23
2019-01-27T08:37:43.265Z,3.20
2019-01-27T08:40:18.675Z,1.90
2019-01-27T08:42:55.798Z,2.20
2019-01-27T08:45:27.189Z,1.20
2019-01-27T08:47:53.793Z,1.87
2019-01-27T08:50:20.416Z,4.60
2019-01-27T08:52:46.964Z,2.73
2019-01-27T08:55:13.723Z,2.20
2019-01-27T08:57:40.430Z,2.57
2019-01-27T09:00:15.107Z,1.30
2019-01-27T09:02:46.409Z,4.40
2019-01-27T09:05:15.393Z,3.13
2019-01-27T09:07:56.015Z,2.13
2019-01-27T09:10:27.398Z,2.70
2019-01-27T09:12:55.910Z,2.57
2019-01-27T09:15:24.402Z,2.63
2019-01-27T09:17:55.927Z,2.40
2019-01-27T09:20:33.320Z,2.50
2019-01-27T09:23:04.636Z,2.50
2019-01-27T09:25:33.194Z,3.83
2019-01-27T09:28:01.779Z,2.43
2019-01-27T09:30:33.121Z,4.10
2019-01-27T09:33:04.447Z,2.90
2019-01-27T09:35:51.315Z,4.37
2019-01-27T09:38:25.686Z,3.70
2019-01-27T09:40:54.352Z,4.67
2019-01-27T09:43:22.787Z,4.10
2019-01-27T09:46:05.378Z,3.83
2019-01-27T09:48:30.114Z,3.13
2019-01-27T09:50:58.659Z,3.53
2019-01-27T09:53:27.224Z,3.47
2019-01-27T09:55:55.712Z,4.03
2019-01-27T09:58:27.078Z,5.50
2019-01-27T10:00:55.613Z,2.37
2019-01-27T10:03:30.257Z,5.30
2019-01-27T10:05:58.606Z,3.20
2019-01-27T10:08:41.934Z,4.30
2019-01-27T10:11:12.160Z,5.53
2019-01-27T10:13:43.585Z,5.53
2019-01-27T10:16:12.173Z,2.73
2019-01-27T10:18:43.398Z,7.67
2019-01-27T10:21:14.851Z,5.97
2019-01-27T10:23:43.210Z,5.17
2019-01-27T10:26:11.647Z,5.13
2019-01-27T10:28:42.706Z,4.53
2019-01-27T10:31:16.784Z,5.23
2019-01-27T10:33:45.496Z,3.00
2019-01-27T10:36:32.359Z,9.50
2019-01-27T10:39:03.473Z,6.07
2019-01-27T10:41:34.577Z,3.80
2019-01-27T10:44:03.202Z,3.60
2019-01-27T10:46:48.298Z,4.03
2019-01-27T10:49:31.787Z,4.37
2019-01-27T10:52:12.584Z,7.57
2019-01-27T10:54:53.194Z,7.30
2019-01-27T10:57:31.034Z,5.17
2019-01-27T11:00:05.563Z,6.83
2019-01-27T11:02:37.221Z,5.63
2019-01-27T11:05:16.121Z,6.53
2019-01-27T11:07:50.680Z,4.27
2019-01-27T11:10:34.758Z,6.73
2019-01-27T11:13:11.964Z,4.77
2019-01-27T11:15:43.629Z,3.60
2019-01-27T11:18:14.978Z,5.20
2019-01-27T11:20:43.448Z,5.33
2019-01-27T11:23:21.209Z,3.30
2019-01-27T11:26:00.731Z,6.90
2019-01-27T11:28:26.131Z,3.93
2019-01-27T11:31:11.614Z,4.70
2019-01-27T11:33:40.199Z,3.20
2019-01-27T11:36:08.693Z,2.90
2019-01-27T11:38:55.194Z,3.40
2019-01-27T11:41:26.515Z,4.40
2019-01-27T11:43:57.620Z,5.37
2019-01-27T11:46:26.133Z,2.57
2019-01-27T11:49:00.734Z,3.17
2019-01-27T11:51:29.175Z,3.27
2019-01-27T11:53:55.850Z,3.03
2019-01-27T11:56:22.676Z,7.00
2019-01-27T11:58:49.256Z,5.93
2019-01-27T12:01:15.889Z,3.73
2019-01-27T12:03:42.486Z,5.00
2019-01-27T12:06:09.096Z,5.23
2019-01-27T12:08:35.672Z,6.67
2019-01-27T12:11:02.295Z,6.60
2019-01-27T12:13:29.140Z,3.17
2019-01-27T12:15:55.681Z,4.63
2019-01-27T12:18:22.463Z,4.17
2019-01-27T12:20:49.230Z,4.33
2019-01-27T12:23:15.935Z,3.57
2019-01-27T12:25:42.767Z,3.30
2019-01-27T12:28:09.518Z,3.70
2019-01-27T12:30:36.230Z,5.73
2019-01-27T12:33:03.053Z,2.80
2019-01-27T12:35:29.750Z,5.47
2019-01-27T12:37:56.388Z,4.43
2019-01-27T12:40:24.024Z,5.10
2019-01-27T12:42:50.780Z,4.87
2019-01-27T12:45:17.518Z,5.53
2019-01-27T12:47:44.273Z,6.63
2019-01-27T12:50:17.089Z,4.47
2019-01-27T12:52:45.363Z,3.50
2019-01-27T12:55:12.988Z,2.53
2019-01-27T12:57:40.297Z,3.40
2019-01-27T13:00:17.910Z,1.97
2019-01-27T13:02:44.652Z,2.13
2019-01-27T13:05:12.021Z,1.83
2019-01-27T13:07:38.885Z,3.57
2019-01-27T13:10:13.216Z,0.90
2019-01-27T13:12:39.935Z,4.20
2019-01-27T13:15:14.192Z,2.37
2019-01-27T13:17:40.996Z,1.73
2019-01-27T13:20:10.610Z,4.10
2019-01-27T13:22:37.438Z,3.13
2019-01-27T13:25:09.540Z,2.17
2019-01-27T13:27:36.351Z,4.33
2019-01-27T13:30:08.553Z,2.63
2019-01-27T13:32:35.367Z,2.03
2019-01-27T13:35:02.392Z,3.53
2019-01-27T13:37:29.322Z,3.37
2019-01-27T13:39:55.927Z,4.10
2019-01-27T13:42:22.519Z,3.60
2019-01-27T13:44:48.956Z,3.90
2019-01-27T13:47:15.731Z,7.30
2019-01-27T13:49:42.415Z,5.90
2019-01-27T13:52:08.989Z,5.30
2019-01-27T13:54:35.572Z,6.47
2019-01-27T13:57:02.126Z,6.77
2019-01-27T13:59:28.684Z,5.23
2019-01-27T14:01:55.276Z,7.63
2019-01-27T14:04:21.966Z,8.03
2019-01-27T14:06:48.613Z,6.83
2019-01-27T14:09:15.451Z,6.30
2019-01-27T14:11:41.975Z,8.63
2019-01-27T14:14:08.745Z,7.30
2019-01-27T14:16:35.948Z,6.77
2019-01-27T14:19:02.704Z,5.03
2019-01-27T14:21:29.446Z,5.20
2019-01-27T14:23:56.270Z,6.17
2019-01-27T14:26:22.865Z,5.23
2019-01-27T14:28:49.464Z,7.20
2019-01-27T14:31:16.258Z,8.43
2019-01-27T14:33:42.971Z,6.57
2019-01-27T14:36:09.651Z,8.20
2019-01-27T14:38:36.286Z,7.50
2019-01-27T14:41:03.537Z,13.13
2019-01-27T14:43:32.025Z,6.87
2019-01-27T14:45:58.500Z,7.83
2019-01-27T14:48:25.291Z,7.07
2019-01-27T14:50:51.983Z,6.33
2019-01-27T14:53:18.682Z,5.67
2019-01-27T14:55:45.539Z,5.33
2019-01-27T14:58:12.215Z,5.57
2019-01-27T15:00:42.005Z,6.00
2019-01-27T15:03:09.001Z,7.90
2019-01-27T15:05:35.983Z,6.90
2019-01-27T15:08:03.640Z,6.30
2019-01-27T15:10:30.385Z,5.10
2019-01-27T15:12:57.449Z,4.93
2019-01-27T15:15:24.404Z,6.07
2019-01-27T15:17:51.180Z,5.90
2019-01-27T15:20:33.515Z,8.63
2019-01-27T15:23:00.274Z,5.33
2019-01-27T15:25:27.012Z,6.33
2019-01-27T15:27:53.848Z,5.53
2019-01-27T15:30:25.491Z,5.30
2019-01-27T15:32:52.378Z,8.87
2019-01-27T15:35:19.025Z,5.53
2019-01-27T15:37:45.691Z,7.77
2019-01-27T15:40:14.671Z,6.57
2019-01-27T15:42:43.540Z,8.73
2019-01-27T15:45:23.558Z,3.50
2019-01-27T15:47:51.386Z,3.80
2019-01-27T15:50:22.098Z,3.33
2019-01-27T15:52:48.797Z,5.47
2019-01-27T15:55:17.859Z,4.00
2019-01-27T15:57:44.899Z,2.60
2019-01-27T16:00:25.122Z,4.47
2019-01-27T16:02:52.364Z,5.10
2019-01-27T16:05:21.617Z,10.23
2019-01-27T16:07:49.133Z,5.57
2019-01-27T16:10:19.900Z,4.07
2019-01-27T16:12:46.884Z,4.73
2019-01-27T16:15:18.325Z,3.27
2019-01-27T16:17:45.154Z,2.30
2019-01-27T16:20:15.871Z,2.30
2019-01-27T16:22:44.617Z,3.80
2019-01-27T16:25:11.439Z,3.20
2019-01-27T16:27:38.271Z,4.43
2019-01-27T16:30:36.168Z,2.73
2019-01-27T16:33:04.835Z,4.23
2019-01-27T16:35:31.938Z,6.60
2019-01-27T16:37:58.720Z,8.60
2019-01-27T16:40:25.834Z,4.03
2019-01-27T16:42:54.413Z,6.77
2019-01-27T16:45:21.201Z,7.23
2019-01-27T16:47:47.969Z,7.63
2019-01-27T16:50:16.095Z,10.10
2019-01-27T16:52:43.105Z,10.40
2019-01-27T16:55:14.784Z,8.80
2019-01-27T16:57:41.426Z,12.37
2019-01-27T17:00:16.130Z,12.53
2019-01-27T17:02:42.866Z,9.10
2019-01-27T17:05:13.746Z,12.03
2019-01-27T17:07:40.309Z,14.97
2019-01-27T17:10:18.382Z,11.50
2019-01-27T17:12:45.109Z,14.53
2019-01-27T17:15:12.697Z,16.97
2019-01-27T17:17:39.317Z,17.13
2019-01-27T17:20:25.897Z,12.73
2019-01-27T17:22:52.270Z,14.57
2019-01-27T17:25:21.245Z,19.73
2019-01-27T17:27:48.326Z,15.80
2019-01-27T17:30:22.800Z,16.50
2019-01-27T17:32:50.156Z,22.67
2019-01-27T17:35:17.767Z,18.10
2019-01-27T17:37:44.752Z,22.53
2019-01-27T17:40:16.518Z,17.90
2019-01-27T17:42:43.985Z,26.17
2019-01-27T17:45:22.950Z,20.67
2019-01-27T17:47:49.655Z,17.30
2019-01-27T17:50:18.700Z,22.20
2019-01-27T17:52:45.633Z,18.00
2019-01-27T17:55:44.269Z,20.03
2019-01-27T17:58:35.642Z,23.30
2019-01-27T18:01:08.470Z,19.93
2019-01-27T18:03:39.575Z,24.10
2019-01-27T18:06:17.459Z,22.33
2019-01-27T18:09:04.107Z,16.73
2019-01-27T18:11:32.880Z,16.37
2019-01-27T18:14:01.563Z,16.57
2019-01-27T18:16:28.119Z,23.10
2019-01-27T18:18:54.974Z,21.37
2019-01-27T18:21:21.765Z,18.13
2019-01-27T18:23:48.647Z,19.03
2019-01-27T18:26:17.312Z,20.47
2019-01-27T18:28:44.269Z,19.30
2019-01-27T18:31:11.267Z,19.63
2019-01-27T18:33:38.132Z,16.10
2019-01-27T18:36:05.183Z,19.23
2019-01-27T18:38:31.958Z,16.20
2019-01-27T18:40:58.732Z,21.40
2019-01-27T18:43:25.639Z,19.10
2019-01-27T18:45:54.297Z,17.87
2019-01-27T18:48:21.080Z,18.60
2019-01-27T18:50:48.220Z,15.73
2019-01-27T18:53:33.522Z,14.70
2019-01-27T18:56:02.559Z,14.37
2019-01-27T18:58:31.119Z,13.57
2019-01-27T19:01:11.374Z,14.90
2019-01-27T19:03:42.778Z,14.77
2019-01-27T19:06:11.514Z,9.40
2019-01-27T19:08:40.145Z,14.43
2019-01-27T19:11:09.047Z,19.83
2019-01-27T19:13:46.590Z,10.43
2019-01-27T19:16:17.678Z,16.50
2019-01-27T19:18:58.292Z,8.30
2019-01-27T19:21:26.926Z,9.67
2019-01-27T19:24:01.109Z,15.40
2019-01-27T19:26:29.886Z,14.53
2019-01-27T19:29:01.338Z,11.27
2019-01-27T19:31:29.940Z,11.73
2019-01-27T19:34:10.624Z,14.80
2019-01-27T19:36:55.966Z,14.20
2019-01-27T19:39:27.312Z,18.07
2019-01-27T19:42:04.797Z,18.47
2019-01-27T19:44:33.334Z,22.93
2019-01-27T19:47:01.860Z,16.03
2019-01-27T19:49:30.312Z,18.53
2019-01-27T19:52:07.987Z,24.47
2019-01-27T19:54:51.545Z,22.73
2019-01-27T19:57:20.059Z,16.93
2019-01-27T19:59:48.676Z,19.47
2019-01-27T20:02:33.587Z,21.63
2019-01-27T20:05:02.204Z,21.40
2019-01-27T20:07:45.920Z,20.77
2019-01-27T20:10:31.590Z,24.07
2019-01-27T20:13:08.611Z,15.33
2019-01-27T20:15:52.611Z,16.17
2019-01-27T20:18:21.091Z,13.57
2019-01-27T20:20:49.763Z,13.47
2019-01-27T20:23:21.127Z,15.77
2019-01-27T20:26:04.896Z,11.40
2019-01-27T20:28:45.523Z,10.53
2019-01-27T20:31:30.754Z,17.03
2019-01-27T20:33:59.393Z,15.00
2019-01-27T20:36:27.996Z,10.70
2019-01-27T20:38:56.599Z,15.40
2019-01-27T20:41:25.215Z,11.40
2019-01-27T20:43:56.616Z,12.27
2019-01-27T20:46:31.268Z,18.97
2019-01-27T20:49:08.654Z,20.63
2019-01-27T20:51:37.181Z,16.13
2019-01-27T20:54:24.147Z,19.50
2019-01-27T20:56:58.355Z,23.70
2019-01-27T20:59:43.179Z,16.10
2019-01-27T21:02:11.754Z,18.25
2019-01-27T21:04:56.777Z,17.20
2019-01-27T21:07:28.151Z,18.33
2019-01-27T21:09:56.758Z,31.37
2019-01-27T21:12:28.283Z,22.37
2019-01-27T21:14:56.714Z,20.03
2019-01-27T21:17:34.029Z,23.93
2019-01-27T21:20:00.830Z,16.40
2019-01-27T21:22:27.531Z,15.90
2019-01-27T21:24:54.040Z,17.67
2019-01-27T21:27:20.665Z,22.10
2019-01-27T21:29:47.114Z,21.00
2019-01-27T21:32:13.956Z,22.13
2019-01-27T21:34:40.488Z,15.93
2019-01-27T21:37:07.201Z,16.83
2019-01-27T21:39:33.827Z,18.10
2019-01-27T21:42:00.519Z,12.70
2019-01-27T21:44:27.356Z,16.43
2019-01-27T21:46:54.090Z,18.27
2019-01-27T21:49:20.715Z,15.87
2019-01-27T21:51:47.392Z,11.87
2019-01-27T21:54:14.146Z,14.77
2019-01-27T21:56:40.676Z,14.80
2019-01-27T21:59:07.282Z,14.03
2019-01-27T22:01:33.970Z,10.57
2019-01-27T22:04:00.517Z,12.83
2019-01-27T22:06:27.095Z,12.97
2019-01-27T22:08:53.536Z,11.40
2019-01-27T22:11:20.075Z,10.07
2019-01-27T22:13:46.738Z,13.33
2019-01-27T22:16:13.334Z,15.77
2019-01-27T22:18:39.875Z,10.27
2019-01-27T22:21:06.395Z,10.57
2019-01-27T22:23:32.906Z,10.90
2019-01-27T22:25:59.680Z,11.30
2019-01-27T22:28:26.073Z,10.70
2019-01-27T22:30:52.739Z,12.60
2019-01-27T22:33:19.485Z,10.87
2019-01-27T22:35:45.968Z,11.77
2019-01-27T22:38:12.739Z,11.57
2019-01-27T22:40:39.496Z,11.30
2019-01-27T22:43:06.154Z,11.50
2019-01-27T22:45:32.737Z,12.07
2019-01-27T22:47:59.565Z,12.37
2019-01-27T22:50:26.770Z,15.17
2019-01-27T22:52:53.614Z,11.30
2019-01-27T22:55:20.406Z,13.13
2019-01-27T22:57:47.071Z,13.93
2019-01-27T23:00:35.878Z,13.63
2019-01-27T23:03:03.814Z,13.17
2019-01-27T23:05:30.419Z,10.73
2019-01-27T23:07:56.966Z,9.40
2019-01-27T23:10:23.573Z,9.93
2019-01-27T23:12:50.100Z,17.23
2019-01-27T23:15:17.005Z,14.53
2019-01-27T23:17:43.402Z,13.70
2019-01-27T23:20:10.007Z,9.83
2019-01-27T23:22:36.576Z,13.80
2019-01-27T23:25:04.525Z,11.60
2019-01-27T23:27:31.168Z,17.47
2019-01-27T23:29:57.475Z,13.27
2019-01-27T23:32:24.022Z,10.20
2019-01-27T23:34:50.610Z,10.97
2019-01-27T23:37:17.269Z,13.30
2019-01-27T23:39:43.915Z,13.13
2019-01-27T23:42:10.495Z,10.10
2019-01-27T23:44:37.123Z,7.60
2019-01-27T23:47:03.760Z,10.50
2019-01-27T23:49:30.303Z,7.63
2019-01-27T23:51:56.926Z,11.30
2019-01-27T23:54:23.355Z,12.40
2019-01-27T23:56:49.973Z,8.47
2019-01-27T23:59:16.532Z,9.57
